createdAt,value
2023-05-02T00:00:05.804Z,15.31
2023-05-02T00:03:33.807Z,15.24
2023-05-02T00:06:42.779Z,15.20
2023-05-02T00:10:10.638Z,15.15
2023-05-02T00:13:38.557Z,15.07
2023-05-02T00:17:06.695Z,14.96
2023-05-02T00:20:34.941Z,14.88
2023-05-02T00:24:02.804Z,14.83
2023-05-02T00:27:30.759Z,14.74
2023-05-02T00:30:58.759Z,14.67
2023-05-02T00:34:26.680Z,14.62
2023-05-02T00:37:54.655Z,14.57
2023-05-02T00:41:03.612Z,14.51
2023-05-02T00:44:31.721Z,14.45
2023-05-02T00:47:59.854Z,14.40
2023-05-02T00:51:28.009Z,14.36
2023-05-02T00:54:55.769Z,14.31
2023-05-02T00:58:04.706Z,14.26
2023-05-02T01:01:32.795Z,14.19
2023-05-02T01:05:00.630Z,14.14
2023-05-02T01:08:28.703Z,14.05
2023-05-02T01:11:56.653Z,13.96
2023-05-02T01:15:24.925Z,13.89
2023-05-02T01:18:14.015Z,13.84
2023-05-02T01:21:24.035Z,13.76
2023-05-02T01:24:52.065Z,13.69
2023-05-02T01:28:20.129Z,13.64
2023-05-02T01:31:48.071Z,13.59
2023-05-02T01:35:16.242Z,13.55
2023-05-02T01:38:44.184Z,13.48
2023-05-02T01:42:12.055Z,13.40
2023-05-02T01:45:39.977Z,13.35
2023-05-02T01:49:08.089Z,13.31
2023-05-02T01:52:36.361Z,13.31
2023-05-02T01:56:04.325Z,13.30
2023-05-02T01:59:32.361Z,13.31
2023-05-02T02:03:00.254Z,13.31
2023-05-02T02:06:28.125Z,13.28
2023-05-02T02:09:56.054Z,13.27
2023-05-02T02:13:24.045Z,13.21
2023-05-02T02:16:52.292Z,13.18
2023-05-02T02:20:20.479Z,13.15
2023-05-02T02:23:29.884Z,13.12
2023-05-02T02:26:57.938Z,13.09
2023-05-02T02:30:25.811Z,13.07
2023-05-02T02:33:53.651Z,13.04
2023-05-02T02:37:21.856Z,13.00
2023-05-02T02:40:49.987Z,12.97
2023-05-02T02:44:18.106Z,12.94
2023-05-02T02:47:28.983Z,12.93
2023-05-02T02:50:57.417Z,12.92
2023-05-02T02:54:27.307Z,12.89
2023-05-02T02:57:37.423Z,12.84
2023-05-02T03:01:05.355Z,12.75
2023-05-02T03:04:15.077Z,12.67
2023-05-02T03:07:43.263Z,12.59
2023-05-02T03:11:11.292Z,12.53
2023-05-02T03:14:39.058Z,12.48
2023-05-02T03:18:07.016Z,12.47
2023-05-02T03:21:16.001Z,12.46
2023-05-02T03:24:43.787Z,12.45
2023-05-02T03:28:11.762Z,12.47
2023-05-02T03:31:39.863Z,12.48
2023-05-02T03:35:07.718Z,12.48
2023-05-02T03:38:35.569Z,12.47
2023-05-02T03:42:03.672Z,12.47
2023-05-02T03:45:32.206Z,12.48
2023-05-02T03:49:00.502Z,12.51
2023-05-02T03:52:28.771Z,12.55
2023-05-02T03:55:56.705Z,12.57
2023-05-02T03:59:24.758Z,12.63
2023-05-02T04:02:52.849Z,12.68
2023-05-02T04:06:20.557Z,12.73
2023-05-02T04:09:49.646Z,12.80
2023-05-02T04:13:17.811Z,12.88
2023-05-02T04:16:45.804Z,12.95
2023-05-02T04:20:21.747Z,13.02
2023-05-02T04:23:49.736Z,13.08
2023-05-02T04:27:17.564Z,13.15
2023-05-02T04:30:45.716Z,13.22
2023-05-02T04:34:15.611Z,13.31
2023-05-02T04:37:45.781Z,13.40
2023-05-02T04:41:13.517Z,13.51
2023-05-02T04:44:42.877Z,13.62
2023-05-02T04:47:52.472Z,13.71
2023-05-02T04:51:25.468Z,13.81
2023-05-02T04:54:34.903Z,13.91
2023-05-02T04:58:03.277Z,14.03
2023-05-02T05:01:31.362Z,14.17
2023-05-02T05:04:59.454Z,14.32
2023-05-02T05:08:27.447Z,14.45
2023-05-02T05:11:55.272Z,14.61
2023-05-02T05:15:23.383Z,14.74
2023-05-02T05:18:51.874Z,14.87
2023-05-02T05:22:20.008Z,14.99
2023-05-02T05:25:28.950Z,15.10
2023-05-02T05:28:56.746Z,15.24
2023-05-02T05:32:00.817Z,15.36
2023-05-02T05:35:28.551Z,15.52
2023-05-02T05:38:56.551Z,15.70
2023-05-02T05:42:24.567Z,15.86
2023-05-02T05:45:52.452Z,15.98
2023-05-02T05:49:20.554Z,16.09
2023-05-02T05:52:30.488Z,16.14
2023-05-02T05:55:58.629Z,16.19
2023-05-02T05:59:15.155Z,16.24
2023-05-02T06:02:43.262Z,16.32
2023-05-02T06:06:10.901Z,16.39
2023-05-02T06:09:39.016Z,16.50
2023-05-02T06:12:49.469Z,16.58
2023-05-02T06:16:17.480Z,16.73
2023-05-02T06:19:06.261Z,16.82
2023-05-02T06:22:34.201Z,16.92
2023-05-02T06:25:23.441Z,17.02
2023-05-02T06:27:53.164Z,17.10
2023-05-02T06:31:01.573Z,17.17
2023-05-02T06:34:29.554Z,17.32
2023-05-02T06:37:26.435Z,17.45
2023-05-02T06:40:34.646Z,17.63
2023-05-02T06:43:23.398Z,17.75
2023-05-02T06:46:48.313Z,17.95
2023-05-02T06:49:38.860Z,18.12
2023-05-02T06:52:43.891Z,18.32
2023-05-02T06:55:49.485Z,18.49
2023-05-02T06:59:14.255Z,18.71
2023-05-02T07:02:34.365Z,18.92
2023-05-02T07:05:54.583Z,19.13
2023-05-02T07:09:18.829Z,19.34
2023-05-02T07:12:43.372Z,19.60
2023-05-02T07:15:40.059Z,19.85
2023-05-02T07:18:08.769Z,20.05
2023-05-02T07:21:06.528Z,20.26
2023-05-02T07:24:12.873Z,20.42
2023-05-02T07:27:41.430Z,20.62
2023-05-02T07:30:49.515Z,20.80
2023-05-02T07:33:18.984Z,20.90
2023-05-02T07:36:12.923Z,21.11
2023-05-02T07:39:20.943Z,21.25
2023-05-02T07:42:10.005Z,21.34
2023-05-02T07:45:26.419Z,21.41
2023-05-02T07:48:17.371Z,21.54
2023-05-02T07:51:45.062Z,21.63
2023-05-02T07:54:54.919Z,21.82
2023-05-02T07:58:25.940Z,21.97
2023-05-02T08:01:54.016Z,21.93
2023-05-02T08:04:22.892Z,21.92
2023-05-02T08:07:50.691Z,21.92
2023-05-02T08:11:00.513Z,22.10
2023-05-02T08:14:29.349Z,22.36
2023-05-02T08:17:20.718Z,22.48
2023-05-02T08:20:29.847Z,22.66
2023-05-02T08:23:57.824Z,22.58
2023-05-02T08:26:44.713Z,22.48
2023-05-02T08:29:53.850Z,22.84
2023-05-02T08:33:21.962Z,22.90
2023-05-02T08:36:50.215Z,22.99
2023-05-02T08:40:24.661Z,22.99
2023-05-02T08:43:46.527Z,23.05
2023-05-02T08:46:54.936Z,22.92
2023-05-02T08:50:23.756Z,22.95
2023-05-02T08:53:51.631Z,23.21
2023-05-02T08:57:19.726Z,23.26
2023-05-02T09:00:47.634Z,23.44
2023-05-02T09:04:15.677Z,23.45
2023-05-02T09:07:31.492Z,23.56
2023-05-02T09:10:59.594Z,23.43
2023-05-02T09:13:49.188Z,23.42
2023-05-02T09:17:19.679Z,23.63
2023-05-02T09:20:28.380Z,23.63
2023-05-02T09:23:36.532Z,23.71
2023-05-02T09:26:52.217Z,23.69
2023-05-02T09:30:00.485Z,23.67
2023-05-02T09:32:49.707Z,23.74
2023-05-02T09:35:59.005Z,23.78
2023-05-02T09:39:26.955Z,23.75
2023-05-02T09:42:54.794Z,24.03
2023-05-02T09:46:03.740Z,24.11
2023-05-02T09:49:31.677Z,24.20
2023-05-02T09:52:40.109Z,24.28
2023-05-02T09:55:49.112Z,24.32
2023-05-02T09:59:16.867Z,24.21
2023-05-02T10:02:44.624Z,24.38
2023-05-02T10:06:12.673Z,24.78
2023-05-02T10:09:40.533Z,24.75
2023-05-02T10:13:08.546Z,24.85
2023-05-02T10:16:36.559Z,25.02
2023-05-02T10:20:05.416Z,24.89
2023-05-02T10:23:14.398Z,24.65
2023-05-02T10:26:24.229Z,24.81
2023-05-02T10:29:52.233Z,24.99
2023-05-02T10:32:41.521Z,25.04
2023-05-02T10:35:51.124Z,25.18
2023-05-02T10:39:19.053Z,25.33
2023-05-02T10:42:28.130Z,25.29
2023-05-02T10:45:56.035Z,25.59
2023-05-02T10:49:23.784Z,25.94
2023-05-02T10:52:51.586Z,25.96
2023-05-02T10:56:19.561Z,26.05
2023-05-02T10:59:47.356Z,26.13
2023-05-02T11:02:56.364Z,26.12
2023-05-02T11:05:53.444Z,25.95
2023-05-02T11:09:21.354Z,25.84
2023-05-02T11:12:49.325Z,26.09
2023-05-02T11:16:17.383Z,26.04
2023-05-02T11:19:26.296Z,26.19
2023-05-02T11:22:15.201Z,26.21
2023-05-02T11:25:43.050Z,25.98
2023-05-02T11:29:11.421Z,25.61
2023-05-02T11:32:39.458Z,25.56
2023-05-02T11:35:48.327Z,25.25
2023-05-02T11:39:16.239Z,25.13
2023-05-02T11:42:44.121Z,24.95
2023-05-02T11:46:12.108Z,24.99
2023-05-02T11:49:40.226Z,25.06
2023-05-02T11:53:08.118Z,25.21
2023-05-02T11:56:16.407Z,25.31
2023-05-02T11:59:44.182Z,25.46
2023-05-02T12:02:53.971Z,25.73
2023-05-02T12:05:42.481Z,26.21
2023-05-02T12:09:10.659Z,26.64
2023-05-02T12:12:19.053Z,27.14
2023-05-02T12:15:27.498Z,27.40
2023-05-02T12:18:55.505Z,27.74
2023-05-02T12:22:23.441Z,27.86
2023-05-02T12:25:51.328Z,28.05
2023-05-02T12:29:19.183Z,28.77
2023-05-02T12:32:47.771Z,28.55
2023-05-02T12:36:15.799Z,28.74
2023-05-02T12:39:43.718Z,28.61
2023-05-02T12:43:11.732Z,28.78
2023-05-02T12:46:39.611Z,28.92
2023-05-02T12:49:48.960Z,29.25
2023-05-02T12:53:18.627Z,29.40
2023-05-02T12:56:08.454Z,29.37
2023-05-02T12:59:36.228Z,29.06
2023-05-02T13:03:04.434Z,29.61
2023-05-02T13:06:28.009Z,29.59
2023-05-02T13:09:55.927Z,29.83
2023-05-02T13:12:53.428Z,29.73
2023-05-02T13:15:41.937Z,30.14
2023-05-02T13:19:10.086Z,30.23
2023-05-02T13:22:38.223Z,30.59
2023-05-02T13:26:06.160Z,30.90
2023-05-02T13:29:33.770Z,30.70
2023-05-02T13:33:01.722Z,31.14
2023-05-02T13:36:29.394Z,31.00
2023-05-02T13:39:57.449Z,31.53
2023-05-02T13:43:25.478Z,31.15
2023-05-02T13:46:15.530Z,31.19
2023-05-02T13:49:23.715Z,31.61
2023-05-02T13:52:32.719Z,31.41
2023-05-02T13:56:00.537Z,31.57
2023-05-02T13:59:10.255Z,31.83
2023-05-02T14:01:59.352Z,31.91
2023-05-02T14:05:15.516Z,31.13
2023-05-02T14:08:43.334Z,31.27
2023-05-02T14:12:11.415Z,31.78
2023-05-02T14:15:19.636Z,31.59
2023-05-02T14:18:47.649Z,31.97
2023-05-02T14:21:35.665Z,31.81
2023-05-02T14:24:44.847Z,31.77
2023-05-02T14:27:36.804Z,31.81
2023-05-02T14:31:06.456Z,31.78
2023-05-02T14:34:15.298Z,31.68
2023-05-02T14:37:12.270Z,31.44
2023-05-02T14:40:02.433Z,31.34
2023-05-02T14:43:30.422Z,31.69
2023-05-02T14:46:41.412Z,31.63
2023-05-02T14:49:11.206Z,31.59
2023-05-02T14:52:00.769Z,31.54
2023-05-02T14:55:24.560Z,31.85
2023-05-02T14:58:16.913Z,32.05
2023-05-02T15:01:08.901Z,31.92
2023-05-02T15:04:37.099Z,31.35
2023-05-02T15:08:05.449Z,31.02
2023-05-02T15:10:54.208Z,30.86
2023-05-02T15:14:18.344Z,30.73
2023-05-02T15:17:27.733Z,30.80
2023-05-02T15:20:56.151Z,30.67
2023-05-02T15:23:53.972Z,30.66
2023-05-02T15:27:21.961Z,30.27
2023-05-02T15:30:49.966Z,30.46
2023-05-02T15:34:17.863Z,30.63
2023-05-02T15:37:19.012Z,30.48
2023-05-02T15:40:47.234Z,30.39
2023-05-02T15:44:15.297Z,30.35
2023-05-02T15:47:04.229Z,30.69
2023-05-02T15:50:13.345Z,31.07
2023-05-02T15:53:22.196Z,31.50
2023-05-02T15:56:50.478Z,31.56
2023-05-02T16:00:18.602Z,31.45
2023-05-02T16:03:12.133Z,31.28
2023-05-02T16:05:43.272Z,31.11
2023-05-02T16:08:55.524Z,31.46
2023-05-02T16:12:23.921Z,31.25
2023-05-02T16:15:32.800Z,30.82
2023-05-02T16:19:00.820Z,29.98
2023-05-02T16:22:29.103Z,29.13
2023-05-02T16:25:57.855Z,28.85
2023-05-02T16:29:25.882Z,28.31
2023-05-02T16:32:54.110Z,27.79
2023-05-02T16:36:02.254Z,27.06
2023-05-02T16:39:30.219Z,26.73
2023-05-02T16:42:58.294Z,26.24
2023-05-02T16:45:48.081Z,25.73
2023-05-02T16:48:17.739Z,25.54
2023-05-02T16:51:24.025Z,25.06
2023-05-02T16:53:53.765Z,24.81
2023-05-02T16:56:43.153Z,24.58
2023-05-02T16:59:32.469Z,24.46
2023-05-02T17:02:22.710Z,24.18
2023-05-02T17:05:13.601Z,23.93
2023-05-02T17:08:02.488Z,23.72
2023-05-02T17:11:13.741Z,23.47
2023-05-02T17:14:25.948Z,23.24
2023-05-02T17:17:34.611Z,23.05
2023-05-02T17:20:23.005Z,22.88
2023-05-02T17:23:27.231Z,22.65
2023-05-02T17:26:06.864Z,22.51
2023-05-02T17:28:50.294Z,22.39
2023-05-02T17:31:23.691Z,22.22
2023-05-02T17:34:51.786Z,21.99
2023-05-02T17:38:01.958Z,21.80
2023-05-02T17:40:50.197Z,21.66
2023-05-02T17:43:21.281Z,21.52
2023-05-02T17:46:31.099Z,21.34
2023-05-02T17:49:58.967Z,21.15
2023-05-02T17:52:47.872Z,21.00
2023-05-02T17:55:31.669Z,20.90
2023-05-02T17:58:41.585Z,20.77
2023-05-02T18:01:16.036Z,20.68
2023-05-02T18:04:39.930Z,20.59
2023-05-02T18:07:11.789Z,20.48
2023-05-02T18:10:14.004Z,20.39
2023-05-02T18:13:02.978Z,20.25
2023-05-02T18:15:59.033Z,20.10
2023-05-02T18:19:27.297Z,19.98
2023-05-02T18:22:19.200Z,19.89
2023-05-02T18:24:48.764Z,19.81
2023-05-02T18:28:16.651Z,19.74
2023-05-02T18:31:44.412Z,19.67
2023-05-02T18:34:38.468Z,19.60
2023-05-02T18:38:04.142Z,19.50
2023-05-02T18:41:31.940Z,19.44
2023-05-02T18:44:41.007Z,19.34
2023-05-02T18:47:49.551Z,19.27
2023-05-02T18:50:38.669Z,19.23
2023-05-02T18:54:07.108Z,19.17
2023-05-02T18:57:23.336Z,19.12
2023-05-02T19:00:31.260Z,19.11
2023-05-02T19:03:44.596Z,19.08
2023-05-02T19:07:19.488Z,19.07
2023-05-02T19:10:48.394Z,19.07
2023-05-02T19:14:16.409Z,19.06
2023-05-02T19:17:50.071Z,19.06
2023-05-02T19:21:17.895Z,19.04
2023-05-02T19:24:45.949Z,19.01
2023-05-02T19:27:55.809Z,19.01
2023-05-02T19:31:23.715Z,18.99
2023-05-02T19:34:32.850Z,18.98
2023-05-02T19:38:00.802Z,19.00
2023-05-02T19:41:11.530Z,19.01
2023-05-02T19:44:39.397Z,18.99
2023-05-02T19:48:02.897Z,18.95
2023-05-02T19:50:34.409Z,18.91
2023-05-02T19:53:22.792Z,18.86
2023-05-02T19:55:55.254Z,18.82
2023-05-02T19:58:43.786Z,18.75
2023-05-02T20:02:11.817Z,18.64
2023-05-02T20:05:39.921Z,18.53
2023-05-02T20:08:48.684Z,18.43
2023-05-02T20:11:38.445Z,18.35
2023-05-02T20:15:06.367Z,18.26
2023-05-02T20:18:16.446Z,18.19
2023-05-02T20:21:44.056Z,18.10
2023-05-02T20:25:11.972Z,18.04
2023-05-02T20:28:39.928Z,17.96
2023-05-02T20:31:27.922Z,17.86
2023-05-02T20:34:15.881Z,17.75
2023-05-02T20:37:04.971Z,17.66
2023-05-02T20:40:33.724Z,17.57
2023-05-02T20:43:23.651Z,17.53
2023-05-02T20:46:29.399Z,17.51
2023-05-02T20:49:57.298Z,17.47
2023-05-02T20:53:07.567Z,17.44
2023-05-02T20:56:35.856Z,17.40
2023-05-02T21:00:04.679Z,17.36
2023-05-02T21:03:32.655Z,17.33
2023-05-02T21:07:00.631Z,17.32
2023-05-02T21:10:32.778Z,17.29
2023-05-02T21:14:01.033Z,17.31
2023-05-02T21:17:33.081Z,17.31
2023-05-02T21:21:04.275Z,17.28
2023-05-02T21:24:32.882Z,17.22
2023-05-02T21:27:43.876Z,17.15
2023-05-02T21:30:53.239Z,17.08
2023-05-02T21:34:21.455Z,16.99
2023-05-02T21:37:49.625Z,16.87
2023-05-02T21:41:17.710Z,16.80
2023-05-02T21:44:25.999Z,16.71
2023-05-02T21:47:53.778Z,16.64
2023-05-02T21:51:24.512Z,16.54
2023-05-02T21:54:52.641Z,16.48
2023-05-02T21:58:21.078Z,16.42
2023-05-02T22:01:48.993Z,16.33
2023-05-02T22:05:16.761Z,16.24
2023-05-02T22:08:44.756Z,16.16
2023-05-02T22:12:12.661Z,16.05
2023-05-02T22:15:40.671Z,15.96
2023-05-02T22:19:08.453Z,15.80
2023-05-02T22:22:36.507Z,15.66
2023-05-02T22:26:04.522Z,15.55
2023-05-02T22:29:32.509Z,15.48
2023-05-02T22:33:00.409Z,15.43
2023-05-02T22:36:28.008Z,15.39
2023-05-02T22:39:37.054Z,15.36
2023-05-02T22:43:05.012Z,15.35
2023-05-02T22:46:13.757Z,15.33
2023-05-02T22:49:41.766Z,15.32
2023-05-02T22:53:09.585Z,15.30
2023-05-02T22:56:37.894Z,15.28
2023-05-02T23:00:05.989Z,15.25
2023-05-02T23:03:33.619Z,15.25
2023-05-02T23:07:01.318Z,15.25
2023-05-02T23:10:29.390Z,15.25
2023-05-02T23:13:57.211Z,15.29
2023-05-02T23:17:05.639Z,15.30
2023-05-02T23:20:33.343Z,15.31
2023-05-02T23:24:01.327Z,15.35
2023-05-02T23:27:09.742Z,15.38
2023-05-02T23:30:19.874Z,15.41
2023-05-02T23:33:28.538Z,15.42
2023-05-02T23:36:56.402Z,15.44
2023-05-02T23:40:05.459Z,15.46
2023-05-02T23:43:33.506Z,15.45
2023-05-02T23:47:01.462Z,15.46
2023-05-02T23:50:29.228Z,15.48
2023-05-02T23:53:57.278Z,15.50
2023-05-02T23:57:25.461Z,15.52
